Latest Coastal Weather Observations for Newcastle Nobbys

IDN60701

Issued at 4:55 am EDT Tuesday 25 November 2014 (issued every 10 minutes, with the page automatically refreshed every 10 minutes)

About coastal observations | Map of coastal stations | Coastal observations for NSW | Marine services | Other Formats
Station Details ID: 061055 Name: NEWCASTLE NOBBYS SIGNAL STATION AWS Lat: -32.92 Lon: 151.80 Height: 33.0 m
Data from the previous 72 hours. | See also: Recent months at Newcastle Nobbys
Date/Time
EDT
Temp

°C
Wind Pressure Rain
since 9am
mm
Weather Cloud Vis
km
Sea
Height
m
Swell
Dir
 
Speed
knots
Gust
knots
hPa Trend Height
m
Period
s
Dir
25/04:30am 22.9 NNW 8 10 - - 8.6 - - - - - - -
25/04:00am 23.1 NNW 8 10 - - 8.6 - - - - - - -
25/03:30am 23.0 WNW 7 9 - - 8.6 - - - - - - -
25/03:00am 23.1 NW 9 12 - - 8.4 - - - - - - -
25/02:30am 23.1 NNW 8 10 - - 8.4 - - - - - - -
25/02:00am 23.0 NW 6 8 - - 8.4 - - - - - - -
25/01:30am 22.9 NW 7 9 - - 8.4 - - - - - - -
25/01:00am 22.9 NW 8 10 - - 8.4 - - - - - - -
25/12:30am 22.9 NW 12 16 - - 7.8 - - - - - - -
25/12:00am 22.7 NNW 9 11 - - 7.0 Recent precip. - - - - - -
 
Date/Time
EDT
Temp

°C
Wind Pressure Rain
since 9am
mm
Weather Cloud Vis
km
Sea
Height
m
Swell
Dir
 
Speed
knots
Gust
knots
hPa Trend Height
m
Period
s
Dir
24/11:30pm 22.7 N 6 8 - - 7.0 - - - - - - -
24/11:00pm 22.8 WNW 5 7 - - 6.8 - - - - - - -
24/10:30pm 22.5 N 5 6 - - 3.6 - - - - - - -
24/10:00pm 22.5 NNE 4 6 - - 3.6 - - - - - - -
24/09:30pm 22.6 SSE 3 5 - - 3.6 - - - - - - -
24/09:00pm 22.7 WNW 5 6 - - 3.6 Recent precip. - - - - - -
24/08:30pm 22.5 NNE 8 9 - - 3.6 - - - - - - -
24/08:00pm 22.8 NNE 18 23 - - 3.4 - - - - - - -
24/07:51pm 23.0 N 15 21 - - 3.2 - - - - - - -
24/07:30pm 22.3 SSW 6 10 - - 2.8 - - - - - - -
24/07:00pm 22.8 S 9 12 - - 2.8 - - - - - - -
24/06:30pm 23.7 SW 13 17 - - 2.2 - - - - - - -
24/06:00pm 24.0 SW 11 21 - - 0.0 - - - - - - -
24/05:30pm 24.8 N 6 9 - - 0.0 - - - - - - -
24/05:20pm 23.9 NW 6 17 - - 0.0 - - - - - - -
24/05:00pm 25.1 N 20 26 - - 0.0 - - - - - - -
24/04:54pm 24.0 N 15 25 - - 0.0 - - - - - - -
24/04:41pm 22.5 NNW 16 24 - - 0.0 - - - - - - -
24/04:30pm 22.6 SE 4 5 - - 0.0 - - - - - - -
24/04:00pm 22.7 SE 4 5 - - 0.0 - - - - - - -
24/03:30pm 23.3 ESE 5 6 - - 0.0 - - - - - - -
24/03:00pm 23.8 ESE 5 6 - - 0.0 - - - - - - -
24/02:30pm 24.0 ESE 5 6 - - 0.0 - - - - - - -
24/02:00pm 23.6 ESE 6 7 - - 0.0 - - - - - - -
24/01:30pm 23.2 SE 6 7 - - 0.0 - - - - - - -
24/01:00pm 23.4 SSE 6 8 - - 0.0 - - - - - - -
24/12:30pm 23.1 SSE 9 10 - - 0.0 - - - - - - -
24/12:00pm 22.9 SSE 8 10 - - 0.0 - - - - - - -
24/11:30am 22.5 S 8 9 - - 0.0 - - - - - - -
24/11:00am 22.8 S 10 12 - - 0.0 - - - - - - -
24/10:30am 22.5 S 10 13 - - 0.0 - - - - - - -
24/10:00am 22.3 S 11 14 - - 0.0 - - - - - - -
24/09:30am 21.6 S 13 16 - - 0.0 - - - - - - -
24/09:00am 22.1 S 13 15 - - 1.6 - - - - - - -
24/08:30am 22.2 SSW 9 12 - - 1.6 - - - - - - -
24/08:00am 21.8 SSW 13 18 - - 1.6 - - - - - - -
24/07:30am 21.4 SSW 11 16 - - 1.6 - - - - - - -
24/07:00am 21.3 SSW 10 13 - - 1.6 - - - - - - -
24/06:30am 21.1 SSW 11 13 - - 1.6 - - - - - - -
24/06:00am 20.9 S 12 15 - - 1.6 - - - - - - -
24/05:30am 21.0 SSW 7 10 - - 1.6 - - - - - - -
24/05:00am 21.1 SSW 6 9 - - 1.6 - - - - - - -
24/04:30am 21.1 SSE 6 8 - - 1.6 - - - - - - -
24/04:00am 21.1 SSE 7 9 - - 1.6 - - - - - - -
24/03:30am 21.2 SE 10 12 - - 1.6 - - - - - - -
24/03:00am 21.3 SE 13 15 - - 1.6 - - - - - - -
24/02:30am 21.6 SE 11 13 - - 1.6 - - - - - - -
24/02:00am 22.0 E 6 7 - - 1.6 - - - - - - -
24/01:30am 22.2 S 11 13 - - 1.6 - - - - - - -
24/01:00am 22.4 SW 5 9 - - 1.6 - - - - - - -
24/12:30am 21.8 WSW 5 9 - - 1.6 - - - - - - -
24/12:00am 21.7 SW 7 10 - - 1.6 - - - - - - -
 
Date/Time
EDT
Temp

°C
Wind Pressure Rain
since 9am
mm
Weather Cloud Vis
km
Sea
Height
m
Swell
Dir
 
Speed
knots
Gust
knots
hPa Trend Height
m
Period
s
Dir
23/11:30pm 21.6 WSW 4 11 - - 1.6 - - - - - - -
23/11:00pm 21.6 SSW 15 18 - - 1.6 - - - - - - -
23/10:30pm 21.9 SSW 16 22 - - 1.6 - - - - - - -
23/10:03pm 25.2 S 16 26 - - 1.6 - - - - - - -
23/10:00pm 26.1 S 16 21 - - 1.6 - - - - - - -
23/09:30pm 29.1 NE 13 18 - - 1.6 - - - - - - -
23/09:00pm 26.8 ENE 11 16 - - 1.6 - - - - - - -
23/08:30pm 28.7 E 17 24 - - 1.6 - - - - - - -
23/08:00pm 26.6 E 16 19 - - 1.6 - - - - - - -
23/07:48pm 28.7 ENE 16 25 - - 1.6 - - - - - - -
23/07:30pm 29.0 NW 10 14 - - 0.0 - - - - - - -
23/07:04pm 31.6 WSW 15 19 - - 0.0 - - - - - - -
23/07:00pm 31.6 SSW 25 38 - - 0.0 - - - - - - -
23/06:54pm 32.0 SSW 28 38 - - 0.0 - - - - - - -
23/06:51pm 31.0 S 30 36 - - 0.0 - - - - - - -
23/06:45pm 31.9 SSW 20 31 - - 0.0 - - - - - - -
23/06:30pm 28.5 SSW 20 27 - - 0.0 - - - - - - -
23/06:26pm 27.4 SW 20 25 - - 0.0 - - - - - - -
23/06:00pm 29.1 NE 9 12 - - 0.0 - - - - - - -
23/05:30pm 26.2 ENE 13 19 - - 0.0 - - - - - - -
23/05:00pm 27.1 ENE 15 19 - - 0.0 - - - - - - -
23/04:30pm 26.3 ENE 13 17 - - 0.0 - - - - - - -
23/04:00pm 25.3 ENE 17 21 - - 0.0 - - - - - - -
23/03:30pm 24.8 ENE 16 19 - - 0.0 - - - - - - -
23/03:00pm 23.8 E 15 17 - - 0.0 - - - - - - -
23/02:30pm 23.4 ENE 15 18 - - 0.0 - - - - - - -
23/02:00pm 23.7 ENE 12 14 - - 0.0 - - - - - - -
23/01:30pm 23.9 ENE 11 14 - - 0.0 - - - - - - -
23/01:00pm 23.9 ENE 12 14 - - 0.0 - - - - - - -
23/12:30pm 24.2 ENE 10 12 - - 0.0 - - - - - - -
23/12:00pm 25.6 ENE 9 12 - - 0.0 - - - - - - -
23/11:30am 24.5 E 7 8 - - 0.0 - - - - - - -
23/11:00am 25.3 E 8 9 - - 0.0 - - - - - - -
23/10:30am 27.6 NNE 5 6 - - 0.0 - - - - - - -
23/10:00am 25.8 NNW 7 11 - - 0.0 - - - - - - -
23/09:30am 23.3 N 7 11 - - 0.0 - - - - - - -
23/09:00am 22.3 N 6 8 - - 0.0 - - - - - - -
23/08:30am 21.1 NNW 6 8 - - 0.0 - - - - - - -
23/08:00am 20.1 WNW 6 8 - - 0.0 - - - - - - -
23/07:30am 19.8 NW 4 6 - - 0.0 - - - - - - -
23/07:00am 19.6 N 4 6 - - 0.0 - - - - - - -
23/06:30am 19.9 NW 3 5 - - 0.0 - - - - - - -
23/06:00am 19.8 WNW 5 7 - - 0.0 - - - - - - -
23/05:30am 19.9 WNW 4 6 - - 0.0 - - - - - - -
23/05:00am 19.6 WNW 3 6 - - 0.0 - - - - - - -
23/04:30am 19.9 WNW 3 5 - - 0.0 - - - - - - -
23/04:00am 20.1 WSW 4 5 - - 0.0 - - - - - - -
23/03:30am 20.1 SW 2 4 - - 0.0 - - - - - - -
23/03:00am 20.2 SSW 2 4 - - 0.0 - - - - - - -
23/02:30am 20.2 SSW 4 6 - - 0.0 - - - - - - -
23/02:00am 20.1 S 4 6 - - 0.0 - - - - - - -
23/01:30am 20.0 SSE 6 8 - - 0.0 - - - - - - -
23/01:00am 20.1 SSE 6 7 - - 0.0 - - - - - - -
23/12:30am 20.1 SSE 6 8 - - 0.0 - - - - - - -
23/12:00am 20.1 SSE 7 9 - - 0.0 - - - - - - -
 
Date/Time
EDT
Temp

°C
Wind Pressure Rain
since 9am
mm
Weather Cloud Vis
km
Sea
Height
m
Swell
Dir
 
Speed
knots
Gust
knots
hPa Trend Height
m
Period
s
Dir
22/11:30pm 20.2 SSE 6 8 - - 0.0 - - - - - - -
22/11:00pm 20.3 SSE 4 5 - - 0.0 - - - - - - -
22/10:30pm 20.3 E 6 8 - - 0.0 - - - - - - -
22/10:00pm 20.2 E 8 10 - - 0.0 - - - - - - -
22/09:30pm 20.2 E 9 12 - - 0.0 - - - - - - -
22/09:00pm 20.3 E 9 12 - - 0.0 - - - - - - -
22/08:30pm 20.3 E 11 13 - - 0.0 - - - - - - -
22/08:00pm 20.4 E 11 13 - - 0.0 - - - - - - -
22/07:30pm 20.4 E 8 10 - - 0.0 - - - - - - -
22/07:00pm 20.5 E 9 10 - - 0.0 - - - - - - -
22/06:30pm 20.7 E 9 10 - - 0.0 - - - - - - -
22/06:00pm 21.1 ESE 10 12 - - 0.0 - - - - - - -
22/05:30pm 21.1 ESE 12 13 - - 0.0 - - - - - - -
22/05:00pm 21.3 SE 13 15 - - 0.0 - - - - - - -
22/04:30pm 21.6 ESE 11 14 - - 0.0 - - - - - - -
22/04:00pm 22.0 ESE 11 13 - - 0.0 - - - - - - -
22/03:30pm 22.3 ESE 12 14 - - 0.0 - - - - - - -
22/03:00pm 22.4 ESE 10 11 - - 0.0 - - - - - - -
22/02:30pm 22.3 SE 10 12 - - 0.0 - - - - - - -
22/02:00pm 22.5 SE 9 10 - - 0.0 - - - - - - -
22/01:30pm 22.4 SE 9 10 - - 0.0 - - - - - - -
22/01:00pm 21.9 SSE 11 12 - - 0.0 - - - - - - -
22/12:30pm 22.2 S 12 14 - - 0.0 - - - - - - -
22/12:00pm 21.4 S 12 14 - - 0.0 - - - - - - -
22/11:30am 21.3 S 13 15 - - 0.0 - - - - - - -
22/11:00am 20.6 S 12 15 - - 0.0 - - - - - - -
22/10:30am 20.7 S 12 13 - - 0.0 - - - - - - -
22/10:00am 20.6 S 10 12 - - 0.0 - - - - - - -
22/09:30am 20.4 SSW 9 13 - - 0.0 - - - - - - -
22/09:00am 20.2 SSW 10 15 - - 0.0 - - - - - - -
22/08:30am 19.9 SSW 11 15 - - 0.0 - - - - - - -
22/08:00am 19.8 SSW 12 17 - - 0.0 - - - - - - -
22/07:30am 19.4 SSW 12 16 - - 0.0 - - - - - - -
22/07:00am 19.1 SSW 14 19 - - 0.0 - - - - - - -
22/06:30am 18.9 SSW 14 19 - - 0.0 - - - - - - -
22/06:00am 18.9 SSW 15 20 - - 0.0 - - - - - - -
22/05:30am 19.0 SSW 15 19 - - 0.0 - - - - - - -
22/05:00am 18.9 SSW 16 20 - - 0.0 - - - - - - -

Other Formats:

Comma delimited format used in spreadsheet applications
http://www.bom.gov.au/fwo/IDN60701/IDN60701.94774.axf

JavaScript Object Notation format (JSON) in row-major order
http://www.bom.gov.au/fwo/IDN60701/IDN60701.94774.json